createdAt,value
2018-09-01T00:00:45.339Z,1.50
2018-09-01T00:03:13.844Z,1.40
2018-09-01T00:05:42.471Z,1.83
2018-09-01T00:08:10.910Z,1.73
2018-09-01T00:10:39.383Z,1.67
2018-09-01T00:13:07.908Z,1.60
2018-09-01T00:15:36.326Z,1.60
2018-09-01T00:18:04.821Z,1.60
2018-09-01T00:20:33.196Z,1.83
2018-09-01T00:23:01.680Z,1.70
2018-09-01T00:25:30.120Z,1.63
2018-09-01T00:27:58.558Z,1.73
2018-09-01T00:30:27.092Z,1.70
2018-09-01T00:32:55.622Z,1.63
2018-09-01T00:35:24.053Z,1.77
2018-09-01T00:37:57.771Z,1.73
2018-09-01T00:40:28.160Z,2.00
2018-09-01T00:42:58.832Z,1.63
2018-09-01T00:45:27.416Z,1.67
2018-09-01T00:47:55.812Z,2.00
2018-09-01T00:50:24.469Z,2.50
2018-09-01T00:52:53.117Z,2.03
2018-09-01T00:55:26.772Z,1.90
2018-09-01T00:57:55.511Z,1.57
2018-09-01T01:00:23.987Z,1.67
2018-09-01T01:02:52.636Z,1.93
2018-09-01T01:05:21.544Z,2.00
2018-09-01T01:07:49.997Z,1.70
2018-09-01T01:10:18.705Z,1.77
2018-09-01T01:12:48.395Z,1.53
2018-09-01T01:15:16.932Z,1.90
2018-09-01T01:17:45.337Z,1.57
2018-09-01T01:20:14.167Z,2.07
2018-09-01T01:22:42.713Z,2.20
2018-09-01T01:25:11.319Z,1.40
2018-09-01T01:27:39.805Z,1.43
2018-09-01T01:30:10.594Z,1.40
2018-09-01T01:32:39.081Z,1.60
2018-09-01T01:35:07.560Z,2.20
2018-09-01T01:37:36.854Z,1.97
2018-09-01T01:40:05.928Z,1.40
2018-09-01T01:42:35.560Z,1.90
2018-09-01T01:45:04.085Z,1.97
2018-09-01T01:47:36.328Z,2.13
2018-09-01T01:50:05.600Z,1.80
2018-09-01T01:52:34.060Z,2.00
2018-09-01T01:55:02.528Z,2.23
2018-09-01T01:57:30.948Z,1.70
2018-09-01T01:59:59.335Z,2.00
2018-09-01T02:02:27.716Z,2.23
2018-09-01T02:04:56.221Z,1.80
2018-09-01T02:07:24.692Z,1.80
2018-09-01T02:09:53.158Z,1.80
2018-09-01T02:12:21.581Z,1.87
2018-09-01T02:14:50.057Z,1.63
2018-09-01T02:17:18.417Z,1.93
2018-09-01T02:19:46.832Z,1.87
2018-09-01T02:22:15.267Z,1.83
2018-09-01T02:24:43.653Z,1.73
2018-09-01T02:27:12.137Z,2.40
2018-09-01T02:29:40.668Z,2.20
2018-09-01T02:32:09.071Z,2.00
2018-09-01T02:34:37.532Z,1.90
2018-09-01T02:37:06.079Z,2.00
2018-09-01T02:39:34.507Z,2.63
2018-09-01T02:42:02.928Z,2.07
2018-09-01T02:44:31.363Z,1.97
2018-09-01T02:46:59.852Z,1.90
2018-09-01T02:49:28.285Z,1.70
2018-09-01T02:51:56.718Z,2.10
2018-09-01T02:54:25.126Z,1.93
2018-09-01T02:56:53.521Z,2.30
2018-09-01T02:59:28.607Z,2.00
2018-09-01T03:01:57.021Z,2.33
2018-09-01T03:04:25.462Z,1.60
2018-09-01T03:06:56.205Z,2.10
2018-09-01T03:09:25.032Z,2.40
2018-09-01T03:11:55.298Z,2.03
2018-09-01T03:14:24.684Z,1.50
2018-09-01T03:16:53.958Z,1.70
2018-09-01T03:19:22.785Z,2.13
2018-09-01T03:21:51.257Z,2.00
2018-09-01T03:24:19.803Z,2.20
2018-09-01T03:26:48.215Z,1.90
2018-09-01T03:29:16.777Z,1.77
2018-09-01T03:31:45.216Z,2.43
2018-09-01T03:34:13.914Z,1.70
2018-09-01T03:36:42.335Z,1.80
2018-09-01T03:39:10.742Z,2.73
2018-09-01T03:41:39.776Z,1.90
2018-09-01T03:44:08.284Z,2.03
2018-09-01T03:46:36.760Z,2.30
2018-09-01T03:49:07.509Z,2.00
2018-09-01T03:51:35.888Z,2.60
2018-09-01T03:54:04.633Z,2.37
2018-09-01T03:56:33.036Z,1.97
2018-09-01T03:59:01.453Z,2.57
2018-09-01T04:01:29.805Z,2.10
2018-09-01T04:03:58.224Z,1.93
2018-09-01T04:06:26.541Z,2.13
2018-09-01T04:08:54.970Z,2.27
2018-09-01T04:11:23.353Z,1.90
2018-09-01T04:13:51.812Z,1.83
2018-09-01T04:16:20.329Z,2.13
2018-09-01T04:18:48.708Z,2.30
2018-09-01T04:21:17.221Z,2.10
2018-09-01T04:23:46.056Z,2.20
2018-09-01T04:26:14.521Z,2.20
2018-09-01T04:28:43.111Z,2.03
2018-09-01T04:31:11.567Z,1.70
2018-09-01T04:33:40.128Z,2.33
2018-09-01T04:36:08.561Z,1.90
2018-09-01T04:38:36.904Z,2.20
2018-09-01T04:41:05.492Z,2.37
2018-09-01T04:43:33.931Z,2.37
2018-09-01T04:46:02.386Z,2.23
2018-09-01T04:48:30.811Z,2.30
2018-09-01T04:50:59.212Z,2.17
2018-09-01T04:53:27.723Z,2.00
2018-09-01T04:55:56.072Z,1.73
2018-09-01T04:58:24.513Z,2.23
2018-09-01T05:00:52.943Z,2.23
2018-09-01T05:03:21.442Z,1.87
2018-09-01T05:05:49.849Z,2.30
2018-09-01T05:08:18.305Z,1.90
2018-09-01T05:10:46.784Z,2.53
2018-09-01T05:13:15.405Z,2.20
2018-09-01T05:15:43.940Z,2.10
2018-09-01T05:18:12.436Z,1.90
2018-09-01T05:20:40.881Z,2.37
2018-09-01T05:23:09.528Z,2.77
2018-09-01T05:25:37.978Z,2.13
2018-09-01T05:28:06.362Z,2.20
2018-09-01T05:30:34.952Z,2.30
2018-09-01T05:33:03.474Z,2.10
2018-09-01T05:35:31.894Z,3.03
2018-09-01T05:38:00.298Z,2.33
2018-09-01T05:40:28.704Z,2.00
2018-09-01T05:42:57.174Z,2.63
2018-09-01T05:45:25.605Z,1.90
2018-09-01T05:47:54.228Z,2.80
2018-09-01T05:50:25.856Z,2.23
2018-09-01T05:52:54.215Z,1.90
2018-09-01T05:55:22.676Z,2.33
2018-09-01T05:57:57.722Z,1.97
2018-09-01T06:00:26.340Z,1.90
2018-09-01T06:02:54.771Z,2.43
2018-09-01T06:05:23.239Z,2.37
2018-09-01T06:07:51.694Z,2.20
2018-09-01T06:10:20.160Z,1.87
2018-09-01T06:12:48.665Z,2.07
2018-09-01T06:15:17.074Z,2.00
2018-09-01T06:17:45.546Z,2.07
2018-09-01T06:20:15.036Z,2.20
2018-09-01T06:22:44.514Z,2.00
2018-09-01T06:28:45.253Z,2.30
2018-09-01T06:31:14.188Z,2.20
2018-09-01T06:33:42.779Z,2.37
2018-09-01T06:36:11.474Z,2.20
2018-09-01T06:38:40.205Z,1.90
2018-09-01T06:41:35.530Z,1.90
2018-09-01T06:44:13.986Z,1.83
2018-09-01T06:47:03.470Z,2.40
2018-09-01T06:49:38.621Z,2.07
2018-09-01T06:52:42.581Z,2.20
2018-09-01T06:55:12.445Z,2.00
2018-09-01T06:57:41.434Z,2.03
2018-09-01T07:00:10.027Z,2.93
2018-09-01T07:02:42.860Z,1.67
2018-09-01T07:05:11.443Z,2.00
2018-09-01T07:08:46.358Z,1.97
2018-09-01T07:11:29.898Z,1.97
2018-09-01T07:13:58.486Z,1.90
2018-09-01T07:16:27.036Z,2.07
2018-09-01T07:18:59.773Z,2.00
2018-09-01T07:21:30.410Z,1.90
2018-09-01T07:23:58.980Z,1.70
2018-09-01T07:26:27.468Z,2.00
2018-09-01T07:28:55.960Z,2.00
2018-09-01T07:31:24.889Z,2.70
2018-09-01T07:33:53.183Z,2.60
2018-09-01T07:36:21.660Z,1.80
2018-09-01T07:38:50.148Z,1.93
2018-09-01T07:41:19.343Z,1.83
2018-09-01T07:43:48.350Z,1.73
2018-09-01T07:46:17.200Z,1.87
2018-09-01T07:48:45.797Z,1.67
2018-09-01T07:51:14.597Z,2.70
2018-09-01T07:53:43.154Z,2.00
2018-09-01T07:56:12.090Z,1.87
2018-09-01T08:02:34.545Z,2.20
2018-09-01T08:05:02.958Z,1.43
2018-09-01T08:07:31.481Z,2.00
2018-09-01T08:09:59.933Z,1.80
2018-09-01T08:12:28.499Z,1.87
2018-09-01T08:14:56.955Z,1.93
2018-09-01T08:17:26.045Z,1.70
2018-09-01T08:19:54.877Z,1.63
2018-09-01T08:22:23.282Z,1.60
2018-09-01T08:24:51.776Z,1.87
2018-09-01T08:27:20.234Z,1.53
2018-09-01T08:29:48.761Z,2.00
2018-09-01T08:32:17.341Z,1.90
2018-09-01T08:34:46.913Z,1.90
2018-09-01T08:37:15.481Z,1.70
2018-09-01T08:39:44.013Z,1.90
2018-09-01T08:42:12.586Z,1.30
2018-09-01T08:44:41.247Z,1.60
2018-09-01T08:47:10.379Z,1.77
2018-09-01T08:49:38.897Z,2.10
2018-09-01T08:52:07.375Z,1.80
2018-09-01T08:54:35.812Z,1.63
2018-09-01T08:57:04.365Z,1.83
2018-09-01T08:59:32.744Z,2.00
2018-09-01T09:02:01.271Z,1.70
2018-09-01T09:04:29.635Z,1.70
2018-09-01T09:06:58.159Z,1.50
2018-09-01T09:09:26.660Z,1.80
2018-09-01T09:11:55.072Z,1.87
2018-09-01T09:14:23.562Z,1.43
2018-09-01T09:16:52.028Z,1.70
2018-09-01T09:19:20.686Z,2.07
2018-09-01T09:21:50.006Z,1.90
2018-09-01T09:24:18.523Z,1.80
2018-09-01T09:26:47.046Z,1.60
2018-09-01T09:29:15.550Z,1.60
2018-09-01T09:31:44.143Z,1.77
2018-09-01T09:34:12.866Z,1.73
2018-09-01T09:36:41.263Z,1.40
2018-09-01T09:39:10.561Z,1.50
2018-09-01T09:41:39.500Z,2.20
2018-09-01T09:44:07.934Z,1.90
2018-09-01T09:46:36.673Z,2.00
2018-09-01T09:49:05.511Z,1.90
2018-09-01T09:51:33.959Z,1.87
2018-09-01T09:54:08.973Z,1.70
2018-09-01T09:56:37.803Z,1.80
2018-09-01T09:59:06.656Z,1.63
2018-09-01T10:01:39.504Z,2.00
2018-09-01T10:04:08.717Z,1.70
2018-09-01T10:06:37.933Z,1.40
2018-09-01T10:09:09.906Z,1.80
2018-09-01T10:11:38.683Z,1.30
2018-09-01T10:14:07.226Z,1.73
2018-09-01T10:16:35.619Z,1.43
2018-09-01T10:19:04.110Z,1.93
2018-09-01T10:21:32.605Z,1.63
2018-09-01T10:24:01.082Z,1.83
2018-09-01T10:26:29.671Z,1.60
2018-09-01T10:28:58.056Z,1.57
2018-09-01T10:31:26.672Z,2.03
2018-09-01T10:33:55.506Z,2.50
2018-09-01T10:36:23.917Z,1.90
2018-09-01T10:38:52.340Z,1.57
2018-09-01T10:41:20.999Z,2.20
2018-09-01T10:43:49.460Z,2.40
2018-09-01T10:46:18.103Z,1.60
2018-09-01T10:48:46.685Z,2.00
2018-09-01T10:51:15.343Z,1.67
2018-09-01T10:53:43.979Z,1.70
2018-09-01T10:56:12.759Z,1.40
2018-09-01T10:58:41.352Z,2.03
2018-09-01T11:01:10.681Z,2.00
2018-09-01T11:03:39.778Z,1.60
2018-09-01T11:06:08.738Z,1.70
2018-09-01T11:08:37.171Z,1.60
2018-09-01T11:11:06.050Z,1.20
2018-09-01T11:13:34.423Z,1.67
2018-09-01T11:16:02.935Z,1.70
2018-09-01T11:18:31.327Z,1.73
2018-09-01T11:20:59.843Z,1.43
2018-09-01T11:23:28.348Z,1.43
2018-09-01T11:25:56.740Z,1.70
2018-09-01T11:28:25.171Z,1.93
2018-09-01T11:30:53.705Z,1.30
2018-09-01T11:33:22.118Z,2.07
2018-09-01T11:35:50.677Z,1.70
2018-09-01T11:38:19.205Z,1.40
2018-09-01T11:40:47.632Z,1.53
2018-09-01T11:43:16.253Z,1.70
2018-09-01T11:45:44.990Z,1.60
2018-09-01T11:48:13.488Z,1.60
2018-09-01T11:50:42.320Z,1.40
2018-09-01T11:53:10.971Z,1.80
2018-09-01T11:55:39.325Z,1.60
2018-09-01T11:58:07.728Z,2.20
2018-09-01T12:00:36.290Z,1.90
2018-09-01T12:03:04.791Z,1.40
2018-09-01T12:05:33.232Z,2.20
2018-09-01T12:08:01.756Z,1.70
2018-09-01T12:10:30.304Z,2.03
2018-09-01T12:12:58.768Z,1.60
2018-09-01T12:15:27.177Z,1.30
2018-09-01T12:17:55.585Z,1.37
2018-09-01T12:20:24.692Z,1.40
2018-09-01T12:22:53.838Z,1.27
2018-09-01T12:25:22.723Z,1.63
2018-09-01T12:27:51.953Z,1.43
2018-09-01T12:30:20.792Z,1.53
2018-09-01T12:32:49.720Z,1.50
2018-09-01T12:35:18.741Z,1.20
2018-09-01T12:37:48.069Z,1.23
2018-09-01T12:40:16.844Z,1.97
2018-09-01T12:42:46.228Z,1.80
2018-09-01T12:45:15.574Z,1.80
2018-09-01T12:47:44.265Z,1.53
2018-09-01T12:50:13.085Z,1.43
2018-09-01T12:52:42.231Z,1.70
2018-09-01T12:55:11.968Z,2.40
2018-09-01T12:57:41.448Z,1.47
2018-09-01T13:00:11.079Z,1.30
2018-09-01T13:02:40.166Z,1.70
2018-09-01T13:05:09.064Z,1.67
2018-09-01T13:07:38.300Z,1.37
2018-09-01T13:10:07.408Z,1.70
2018-09-01T13:12:36.676Z,1.73
2018-09-01T13:15:05.120Z,1.40
2018-09-01T13:17:33.568Z,1.40
2018-09-01T13:20:02.588Z,1.97
2018-09-01T13:22:31.847Z,1.60
2018-09-01T13:25:00.916Z,1.30
2018-09-01T13:27:29.932Z,1.50
2018-09-01T13:29:59.284Z,1.53
2018-09-01T13:32:28.921Z,1.40
2018-09-01T13:34:58.522Z,1.70
2018-09-01T13:37:27.599Z,1.50
2018-09-01T13:39:56.899Z,1.30
2018-09-01T13:42:26.040Z,1.53
2018-09-01T13:44:55.311Z,1.50
2018-09-01T13:47:24.564Z,1.53
2018-09-01T13:49:53.628Z,1.67
2018-09-01T13:52:22.542Z,1.73
2018-09-01T13:54:51.671Z,1.50
2018-09-01T13:57:21.543Z,1.23
2018-09-01T13:59:51.527Z,1.33
2018-09-01T14:02:20.705Z,2.00
2018-09-01T14:04:49.775Z,1.97
2018-09-01T14:07:18.952Z,2.00
2018-09-01T14:09:47.945Z,2.60
2018-09-01T14:12:16.886Z,1.97
2018-09-01T14:14:46.485Z,1.67
2018-09-01T14:17:15.758Z,1.80
2018-09-01T14:19:45.027Z,2.03
2018-09-01T14:22:14.245Z,1.20
2018-09-01T14:24:43.583Z,1.30
2018-09-01T14:27:12.791Z,2.00
2018-09-01T14:29:41.361Z,1.30
2018-09-01T14:32:09.936Z,1.43
2018-09-01T14:34:39.216Z,1.70
2018-09-01T14:37:09.161Z,1.30
2018-09-01T14:39:38.753Z,2.37
2018-09-01T14:42:08.310Z,2.10
2018-09-01T14:44:37.712Z,2.10
2018-09-01T14:47:07.076Z,1.77
2018-09-01T14:49:35.579Z,1.97
2018-09-01T14:52:04.026Z,3.97
2018-09-01T14:54:32.469Z,5.07
2018-09-01T14:57:00.905Z,1.60
2018-09-01T14:59:29.348Z,2.00
2018-09-01T15:01:57.965Z,1.77
2018-09-01T15:04:26.994Z,3.33
2018-09-01T15:06:56.687Z,1.73
2018-09-01T15:09:25.082Z,1.60
2018-09-01T15:11:53.500Z,2.93
2018-09-01T15:14:22.172Z,1.60
2018-09-01T15:16:50.770Z,1.70
2018-09-01T15:19:19.500Z,1.50
2018-09-01T15:21:48.148Z,1.50
2018-09-01T15:24:17.064Z,1.53
2018-09-01T15:26:45.712Z,1.50
2018-09-01T15:29:14.571Z,1.60
2018-09-01T15:31:43.339Z,1.43
2018-09-01T15:34:11.819Z,1.53
2018-09-01T15:36:40.283Z,1.30
2018-09-01T15:39:08.701Z,1.40
2018-09-01T15:41:37.187Z,1.60
2018-09-01T15:44:05.967Z,1.20
2018-09-01T15:46:34.529Z,1.40
2018-09-01T15:49:02.948Z,1.60
2018-09-01T15:51:31.579Z,1.47
2018-09-01T15:54:00.127Z,2.00
2018-09-01T15:56:28.619Z,1.37
2018-09-01T15:58:56.997Z,1.30
2018-09-01T16:01:25.388Z,1.67
2018-09-01T16:03:53.833Z,1.40
2018-09-01T16:06:22.242Z,1.40
2018-09-01T16:08:51.294Z,1.40
2018-09-01T16:11:19.838Z,2.80
2018-09-01T16:13:48.364Z,1.23
2018-09-01T16:16:16.762Z,1.70
2018-09-01T16:18:45.343Z,1.80
2018-09-01T16:21:13.900Z,1.53
2018-09-01T16:23:42.369Z,1.70
2018-09-01T16:26:11.045Z,1.63
2018-09-01T16:28:39.500Z,1.30
2018-09-01T16:31:08.005Z,1.40
2018-09-01T16:33:36.489Z,1.63
2018-09-01T16:36:06.450Z,1.97
2018-09-01T16:38:34.899Z,1.60
2018-09-01T16:41:03.540Z,1.80
2018-09-01T16:43:31.976Z,1.50
2018-09-01T16:46:00.495Z,1.70
2018-09-01T16:48:28.961Z,1.50
2018-09-01T16:50:57.524Z,1.43
2018-09-01T16:53:26.156Z,1.30
2018-09-01T16:55:54.680Z,1.40
2018-09-01T16:58:23.324Z,1.57
2018-09-01T17:00:51.871Z,1.60
2018-09-01T17:03:20.549Z,1.47
2018-09-01T17:05:49.293Z,1.83
2018-09-01T17:08:17.911Z,1.87
2018-09-01T17:10:46.620Z,1.80
2018-09-01T17:13:15.357Z,2.03
2018-09-01T17:15:43.952Z,4.40
2018-09-01T17:18:12.602Z,1.60
2018-09-01T17:20:42.296Z,3.00
2018-09-01T17:23:11.531Z,2.13
2018-09-01T17:25:40.357Z,1.97
2018-09-01T17:28:09.005Z,1.93
2018-09-01T17:30:37.456Z,1.90
2018-09-01T17:33:06.474Z,2.33
2018-09-01T17:35:34.917Z,2.07
2018-09-01T17:38:03.357Z,2.00
2018-09-01T17:40:31.902Z,2.80
2018-09-01T17:43:00.490Z,1.80
2018-09-01T17:45:29.192Z,1.70
2018-09-01T17:47:58.093Z,1.70
2018-09-01T17:50:26.588Z,2.93
2018-09-01T17:52:55.029Z,2.40
2018-09-01T17:55:23.588Z,2.57
2018-09-01T17:57:52.665Z,2.80
2018-09-01T18:00:21.588Z,1.70
2018-09-01T18:02:50.219Z,1.80
2018-09-01T18:05:18.845Z,2.70
2018-09-01T18:07:47.607Z,2.20
2018-09-01T18:10:16.407Z,2.50
2018-09-01T18:12:45.537Z,2.00
2018-09-01T18:15:14.470Z,2.97
2018-09-01T18:17:43.174Z,4.40
2018-09-01T18:20:11.718Z,5.70
2018-09-01T18:22:41.179Z,9.53
2018-09-01T18:25:09.698Z,6.10
2018-09-01T18:27:38.164Z,7.20
2018-09-01T18:30:08.066Z,7.30
2018-09-01T18:32:36.576Z,5.10
2018-09-01T18:35:05.861Z,9.63
2018-09-01T18:37:34.426Z,7.27
2018-09-01T18:40:02.941Z,6.07
2018-09-01T18:42:31.559Z,8.43
2018-09-01T18:45:00.428Z,9.90
2018-09-01T18:47:29.077Z,8.70
2018-09-01T18:49:57.598Z,9.53
2018-09-01T18:52:26.094Z,10.23
2018-09-01T18:54:54.968Z,6.47
2018-09-01T18:57:25.609Z,19.00
2018-09-01T18:59:54.295Z,7.30
2018-09-01T19:02:25.694Z,16.20
2018-09-01T19:04:55.693Z,7.53
2018-09-01T19:07:24.539Z,5.53
2018-09-01T19:09:53.254Z,5.30
2018-09-01T19:12:21.823Z,7.93
2018-09-01T19:14:50.290Z,6.37
2018-09-01T19:17:19.140Z,8.47
2018-09-01T19:19:48.383Z,9.17
2018-09-01T19:22:20.110Z,16.60
2018-09-01T19:24:48.832Z,6.57
2018-09-01T19:27:17.551Z,5.30
2018-09-01T19:29:47.198Z,5.90
2018-09-01T19:32:16.645Z,5.10
2018-09-01T19:34:45.439Z,5.10
2018-09-01T19:37:15.346Z,5.37
2018-09-01T19:39:44.019Z,4.73
2018-09-01T19:42:12.822Z,4.00
2018-09-01T19:47:28.415Z,4.50
2018-09-01T19:49:57.049Z,4.67
2018-09-01T19:52:26.031Z,4.43
2018-09-01T19:54:54.822Z,4.03
2018-09-01T19:57:24.449Z,3.97
2018-09-01T19:59:53.891Z,4.47
2018-09-01T20:02:23.821Z,4.20
2018-09-01T20:04:53.154Z,4.20
2018-09-01T20:07:22.004Z,3.90
2018-09-01T20:09:50.953Z,2.97
2018-09-01T20:12:21.147Z,6.50
2018-09-01T20:14:49.957Z,2.80
2018-09-01T20:17:19.398Z,3.40
2018-09-01T20:19:48.205Z,2.67
2018-09-01T20:22:17.251Z,3.10
2018-09-01T20:24:46.152Z,3.10
2018-09-01T20:27:15.087Z,3.40
2018-09-01T20:29:44.444Z,2.60
2018-09-01T20:32:13.365Z,2.67
2018-09-01T20:34:47.792Z,3.30
2018-09-01T20:37:18.300Z,4.13
2018-09-01T20:39:47.694Z,3.10
2018-09-01T20:42:17.113Z,3.40
2018-09-01T20:44:45.974Z,3.40
2018-09-01T20:47:14.755Z,2.80
2018-09-01T20:49:43.656Z,3.10
2018-09-01T20:52:12.429Z,5.70
2018-09-01T20:54:41.794Z,4.30
2018-09-01T20:57:10.549Z,2.33
2018-09-01T20:59:49.137Z,2.50
2018-09-01T21:02:25.661Z,2.10
2018-09-01T21:04:54.338Z,2.20
2018-09-01T21:07:22.902Z,3.00
2018-09-01T21:09:51.518Z,2.83
2018-09-01T21:12:20.212Z,3.37
2018-09-01T21:14:49.126Z,2.47
2018-09-01T21:17:18.501Z,2.30
2018-09-01T21:19:47.525Z,2.57
2018-09-01T21:22:16.872Z,3.90
2018-09-01T21:24:45.962Z,2.60
2018-09-01T21:27:14.828Z,2.30
2018-09-01T21:29:43.725Z,2.53
2018-09-01T21:32:13.227Z,2.40
2018-09-01T21:34:42.615Z,2.83
2018-09-01T21:37:11.254Z,2.10
2018-09-01T21:39:39.888Z,2.37
2018-09-01T21:42:08.342Z,2.70
2018-09-01T21:44:36.874Z,3.60
2018-09-01T21:47:05.469Z,3.73
2018-09-01T21:49:34.166Z,2.80
2018-09-01T21:52:02.661Z,2.40
2018-09-01T21:54:31.201Z,2.10
2018-09-01T21:56:59.637Z,2.13
2018-09-01T21:59:28.165Z,2.37
2018-09-01T22:02:01.848Z,2.30
2018-09-01T22:04:35.670Z,2.57
2018-09-01T22:07:04.201Z,2.50
2018-09-01T22:09:32.661Z,2.67
2018-09-01T22:12:01.180Z,2.43
2018-09-01T22:14:29.710Z,2.50
2018-09-01T22:16:58.215Z,2.60
2018-09-01T22:19:26.717Z,2.23
2018-09-01T22:21:55.281Z,2.43
2018-09-01T22:24:23.824Z,2.20
2018-09-01T22:26:52.326Z,2.00
2018-09-01T22:29:21.189Z,2.10
2018-09-01T22:31:49.768Z,2.27
2018-09-01T22:34:18.424Z,2.30
2018-09-01T22:36:47.173Z,2.43
2018-09-01T22:39:15.989Z,2.80
2018-09-01T22:41:44.789Z,2.67
2018-09-01T22:44:13.619Z,3.13
2018-09-01T22:46:42.464Z,2.30
2018-09-01T22:49:10.992Z,2.63
2018-09-01T22:51:39.523Z,2.00
2018-09-01T22:54:08.181Z,2.10
2018-09-01T22:56:37.091Z,2.30
2018-09-01T22:59:05.946Z,2.77
2018-09-01T23:01:34.450Z,2.77
2018-09-01T23:04:03.101Z,2.60
2018-09-01T23:06:31.508Z,2.50
2018-09-01T23:09:00.045Z,2.83
2018-09-01T23:11:28.646Z,2.77
2018-09-01T23:13:57.219Z,2.57
2018-09-01T23:16:25.694Z,2.70
2018-09-01T23:18:54.637Z,2.60
2018-09-01T23:21:24.204Z,2.50
2018-09-01T23:23:53.145Z,3.10
2018-09-01T23:26:21.646Z,2.70
2018-09-01T23:28:50.430Z,2.57
2018-09-01T23:31:20.833Z,2.27
2018-09-01T23:33:49.403Z,2.73
2018-09-01T23:36:18.064Z,3.13
2018-09-01T23:38:46.756Z,2.80
2018-09-01T23:41:15.962Z,2.63
2018-09-01T23:43:44.702Z,2.83
2018-09-01T23:46:13.820Z,2.50
2018-09-01T23:48:42.658Z,2.30
2018-09-01T23:51:11.235Z,2.70
2018-09-01T23:53:39.733Z,2.90
2018-09-01T23:56:08.334Z,2.63
2018-09-01T23:58:36.834Z,2.50
